Time;durP1;ratioP1;P1;durP2;ratioP2;P2;SDS_P1;SDS_P2;PMS_P1;PMS_P2;Temp;Humidity;BMP_temperature;BMP_pressure;BME280_temperature;BME280_humidity;BME280_pressure;Samples;Min_cycle;Max_cycle;Signal;HPM_P1;HPM_P2
2022/07/13 00:00:44;;;;;;;7.13;3.00;;;;;;;;;;7311282;19;162866;-16
2022/07/13 00:03:15;;;;;;;4.88;2.95;;;;;;;;;;7315961;19;154447;-15
2022/07/13 00:05:49;;;;;;;3.05;2.67;;;;;;;;;;7316121;19;154470;-18
2022/07/13 00:08:20;;;;;;;7.97;2.85;;;;;;;;;;7315712;19;162207;-16
2022/07/13 00:10:52;;;;;;;3.13;2.83;;;;;;;;;;7315452;19;163208;-17
2022/07/13 00:13:25;;;;;;;6.60;2.95;;;;;;;;;;7315506;19;154802;-17
2022/07/13 00:15:58;;;;;;;3.90;2.50;;;;;;;;;;7315784;19;154587;-17
2022/07/13 00:18:29;;;;;;;3.10;2.80;;;;;;;;;;7314990;19;162174;-17
2022/07/13 00:21:03;;;;;;;3.03;2.42;;;;;;;;;;7312292;19;163156;-17
2022/07/13 00:23:34;;;;;;;3.63;2.95;;;;;;;;;;7315698;19;154532;-17
2022/07/13 00:26:07;;;;;;;3.53;2.73;;;;;;;;;;7315293;19;153936;-17
2022/07/13 00:28:38;;;;;;;4.53;2.78;;;;;;;;;;7315088;19;162247;-17
2022/07/13 00:31:10;;;;;;;5.35;2.63;;;;;;;;;;7313679;19;162903;-17
2022/07/13 00:33:41;;;;;;;2.67;2.40;;;;;;;;;;7315819;19;155030;-17
2022/07/13 00:36:15;;;;;;;3.42;2.42;;;;;;;;;;7315299;19;153934;-17
2022/07/13 00:38:46;;;;;;;3.17;2.88;;;;;;;;;;7314719;19;162609;-17
2022/07/13 00:41:17;;;;;;;3.90;2.67;;;;;;;;;;7312065;19;162825;-17
2022/07/13 00:43:48;;;;;;;10.38;3.03;;;;;;;;;;7314917;19;154520;-17
2022/07/13 00:46:20;;;;;;;3.08;2.78;;;;;;;;;;7314786;19;153948;-16
2022/07/13 00:48:51;;;;;;;5.00;2.90;;;;;;;;;;7312905;19;162223;-16
2022/07/13 00:51:25;;;;;;;3.35;2.97;;;;;;;;;;7314603;19;162831;-16
2022/07/13 00:53:56;;;;;;;3.35;2.42;;;;;;;;;;7313256;19;154548;-15
2022/07/13 00:56:29;;;;;;;2.35;2.25;;;;;;;;;;7314106;19;154485;-16
2022/07/13 00:59:01;;;;;;;3.85;2.67;;;;;;;;;;7313800;19;162345;-16
2022/07/13 01:01:32;;;;;;;3.80;2.80;;;;;;;;;;7312143;19;162795;-16
2022/07/13 01:04:04;;;;;;;2.43;2.23;;;;;;;;;;7314842;19;154048;-16
2022/07/13 01:06:38;;;;;;;5.65;2.80;;;;;;;;;;7314340;19;154526;-16
2022/07/13 01:09:10;;;;;;;4.75;2.53;;;;;;;;;;7313995;19;162252;-16
2022/07/13 01:11:45;;;;;;;3.05;2.50;;;;;;;;;;7312237;19;162759;-16
2022/07/13 01:14:17;;;;;;;2.80;2.40;;;;;;;;;;7312836;19;154602;-16
2022/07/13 01:16:49;;;;;;;6.25;3.60;;;;;;;;;;7313919;19;153933;-17
2022/07/13 01:19:21;;;;;;;3.13;2.83;;;;;;;;;;7313909;19;162648;-17
2022/07/13 01:22:01;;;;;;;3.45;3.15;;;;;;;;;;7311168;19;162921;-17
2022/07/13 01:24:36;;;;;;;3.58;3.28;;;;;;;;;;7314042;19;154662;-17
2022/07/13 01:27:07;;;;;;;3.50;3.20;;;;;;;;;;7313957;19;154624;-17
2022/07/13 01:29:39;;;;;;;3.97;3.13;;;;;;;;;;7313794;19;162232;-18
2022/07/13 01:32:11;;;;;;;5.70;3.40;;;;;;;;;;7313577;19;163157;-17
2022/07/13 01:34:43;;;;;;;5.85;3.10;;;;;;;;;;7312130;19;154788;-17
2022/07/13 01:37:14;;;;;;;6.10;2.95;;;;;;;;;;7312135;19;153997;-18
2022/07/13 01:39:51;;;;;;;4.18;3.08;;;;;;;;;;7310275;19;162623;-18
2022/07/13 01:42:22;;;;;;;4.63;3.47;;;;;;;;;;7313241;19;162717;-18
2022/07/13 01:44:57;;;;;;;3.35;3.05;;;;;;;;;;7312075;19;154820;-17
2022/07/13 01:47:28;;;;;;;3.78;3.20;;;;;;;;;;7313357;19;154294;-17
2022/07/13 01:50:00;;;;;;;5.80;3.13;;;;;;;;;;7313083;19;162879;-23
2022/07/13 01:52:33;;;;;;;5.25;3.38;;;;;;;;;;7311293;19;162392;-17
2022/07/13 01:55:09;;;;;;;4.03;3.15;;;;;;;;;;7313239;19;154986;-17
2022/07/13 01:57:43;;;;;;;3.75;3.20;;;;;;;;;;7311243;19;154594;-17
2022/07/13 02:00:16;;;;;;;3.80;2.88;;;;;;;;;;7310606;19;162266;-16
2022/07/13 02:02:49;;;;;;;3.92;3.15;;;;;;;;;;7311420;19;163444;-16
2022/07/13 02:05:27;;;;;;;3.35;3.05;;;;;;;;;;7311513;19;154787;-16
2022/07/13 02:07:58;;;;;;;;;;;;;;;;;;7311754;19;154070;-16
2022/07/13 02:10:39;;;;;;;3.63;3.25;;;;;;;;;;7311046;19;162853;-16
2022/07/13 02:13:11;;;;;;;3.25;3.00;;;;;;;;;;7312391;19;162849;-16
2022/07/13 02:15:44;;;;;;;3.53;2.65;;;;;;;;;;7311061;19;154467;-17
2022/07/13 02:18:16;;;;;;;3.47;3.10;;;;;;;;;;7310933;19;153986;-18
2022/07/13 02:20:48;;;;;;;3.33;3.03;;;;;;;;;;7309773;19;162367;-17
2022/07/13 02:23:19;;;;;;;3.17;2.90;;;;;;;;;;7309081;19;163745;-17
2022/07/13 02:25:53;;;;;;;3.30;3.00;;;;;;;;;;7312734;19;154990;-18
2022/07/13 02:28:24;;;;;;;4.10;3.00;;;;;;;;;;7312233;19;154433;-17
2022/07/13 02:30:56;;;;;;;4.13;2.80;;;;;;;;;;7310210;19;162400;-18
2022/07/13 02:33:28;;;;;;;5.25;2.75;;;;;;;;;;7310272;19;163587;-18
2022/07/13 02:36:02;;;;;;;3.10;2.80;;;;;;;;;;7312403;19;154531;-18
2022/07/13 02:38:33;;;;;;;3.22;2.80;;;;;;;;;;7310857;19;154533;-18
2022/07/13 02:41:07;;;;;;;3.10;2.90;;;;;;;;;;7309174;19;162237;-18
2022/07/13 02:43:38;;;;;;;4.97;2.65;;;;;;;;;;7309776;19;162385;-18
2022/07/13 02:46:09;;;;;;;3.03;2.80;;;;;;;;;;7311907;19;155279;-18
2022/07/13 02:48:41;;;;;;;4.75;3.17;;;;;;;;;;7311711;19;154316;-18
2022/07/13 02:51:12;;;;;;;4.90;3.03;;;;;;;;;;7311445;19;162695;-17
2022/07/13 02:53:43;;;;;;;5.78;3.10;;;;;;;;;;7311275;19;163841;-17
2022/07/13 02:56:17;;;;;;;3.15;2.85;;;;;;;;;;7311022;19;154440;-17
2022/07/13 02:58:49;;;;;;;4.57;2.95;;;;;;;;;;7309684;19;153978;-18
2022/07/13 03:01:20;;;;;;;3.38;3.00;;;;;;;;;;7309648;19;162708;-18
2022/07/13 03:03:51;;;;;;;3.95;3.10;;;;;;;;;;7310742;19;162768;-17
2022/07/13 03:06:23;;;;;;;3.85;2.90;;;;;;;;;;7309715;19;154918;-18
2022/07/13 03:08:54;;;;;;;3.42;3.05;;;;;;;;;;7311072;19;154058;-17
2022/07/13 03:11:29;;;;;;;3.80;2.90;;;;;;;;;;7309050;19;162258;-18
2022/07/13 03:14:01;;;;;;;3.55;3.22;;;;;;;;;;7308950;19;162931;-18
2022/07/13 03:16:34;;;;;;;3.20;2.90;;;;;;;;;;7309386;19;155164;-16
2022/07/13 03:19:07;;;;;;;3.08;2.88;;;;;;;;;;7309280;19;154003;-18
2022/07/13 03:21:38;;;;;;;4.80;3.20;;;;;;;;;;7307922;19;162758;-17
2022/07/13 03:24:10;;;;;;;4.43;2.90;;;;;;;;;;7308972;19;162860;-18
2022/07/13 03:26:44;;;;;;;3.20;3.00;;;;;;;;;;7310729;19;154463;-18
2022/07/13 03:29:15;;;;;;;3.00;2.80;;;;;;;;;;7310392;19;154232;-18
2022/07/13 03:31:48;;;;;;;3.17;2.60;;;;;;;;;;7308325;19;162220;-17
2022/07/13 03:34:19;;;;;;;4.13;2.90;;;;;;;;;;7310376;19;163385;-17
2022/07/13 03:36:52;;;;;;;4.20;2.75;;;;;;;;;;7315846;19;155018;-17
2022/07/13 03:39:23;;;;;;;2.80;2.60;;;;;;;;;;7315171;19;154594;-17
2022/07/13 03:41:58;;;;;;;3.73;3.10;;;;;;;;;;7315907;19;162750;-17
2022/07/13 03:44:29;;;;;;;3.17;2.88;;;;;;;;;;7315413;19;162343;-22
2022/07/13 03:47:01;;;;;;;2.70;2.50;;;;;;;;;;7315332;19;154584;-17
2022/07/13 03:49:34;;;;;;;3.42;2.97;;;;;;;;;;7315511;19;154496;-17
2022/07/13 03:52:05;;;;;;;2.70;2.45;;;;;;;;;;7314510;19;162444;-17
2022/07/13 03:54:37;;;;;;;3.05;2.75;;;;;;;;;;7316309;19;163272;-17
2022/07/13 03:57:11;;;;;;;3.53;2.80;;;;;;;;;;7315166;19;154474;-18
2022/07/13 03:59:44;;;;;;;2.83;2.58;;;;;;;;;;7315032;19;153973;-17
2022/07/13 04:02:18;;;;;;;3.47;3.05;;;;;;;;;;7313366;19;161955;-17
2022/07/13 04:04:50;;;;;;;4.22;2.75;;;;;;;;;;7314472;19;162815;-17
2022/07/13 04:07:24;;;;;;;3.75;2.97;;;;;;;;;;7314829;19;154737;-17
2022/07/13 04:09:55;;;;;;;2.80;2.60;;;;;;;;;;7314861;19;154582;-17
2022/07/13 04:12:29;;;;;;;3.17;2.90;;;;;;;;;;7314346;19;162201;-16
2022/07/13 04:15:01;;;;;;;3.22;2.90;;;;;;;;;;7314083;19;163223;-16
2022/07/13 04:17:34;;;;;;;2.90;2.70;;;;;;;;;;7315068;19;154444;-17
2022/07/13 04:20:06;;;;;;;2.70;2.50;;;;;;;;;;7314710;19;154280;-17
2022/07/13 04:22:37;;;;;;;2.90;2.70;;;;;;;;;;7313213;19;161789;-17
2022/07/13 04:25:10;;;;;;;6.63;3.10;;;;;;;;;;7314167;19;162863;-17
2022/07/13 04:27:44;;;;;;;;;;;;;;;;;;7314905;19;154520;-17
2022/07/13 04:30:15;;;;;;;2.80;2.60;;;;;;;;;;7314245;19;154281;-17
2022/07/13 04:32:47;;;;;;;3.28;2.97;;;;;;;;;;7313745;19;162223;-16
2022/07/13 04:35:21;;;;;;;3.20;3.00;;;;;;;;;;7313697;19;162870;-17
2022/07/13 04:37:52;;;;;;;4.15;3.03;;;;;;;;;;7315475;19;154452;-16
2022/07/13 04:40:24;;;;;;;3.13;2.92;;;;;;;;;;7312681;19;154041;-17
2022/07/13 04:42:59;;;;;;;3.28;2.70;;;;;;;;;;7312486;19;162331;-16
2022/07/13 04:45:30;;;;;;;4.43;3.08;;;;;;;;;;7311020;19;163761;-17
2022/07/13 04:48:02;;;;;;;3.20;2.90;;;;;;;;;;7313859;19;154527;-17
2022/07/13 04:50:35;;;;;;;2.95;2.50;;;;;;;;;;7313301;19;154506;-17
2022/07/13 04:53:07;;;;;;;3.00;2.80;;;;;;;;;;7312978;19;162792;-17
2022/07/13 04:55:40;;;;;;;3.55;2.63;;;;;;;;;;7313087;19;163325;-17
2022/07/13 04:58:14;;;;;;;2.80;2.60;;;;;;;;;;7313293;19;154409;-17
2022/07/13 05:00:45;;;;;;;3.35;2.95;;;;;;;;;;7313318;19;154078;-17
2022/07/13 05:03:36;;;;;;;2.90;2.70;;;;;;;;;;7311505;19;162272;-17
2022/07/13 05:06:07;;;;;;;2.67;2.47;;;;;;;;;;7314537;19;163217;-17
2022/07/13 05:08:39;;;;;;;2.65;2.42;;;;;;;;;;7313279;19;154475;-17
2022/07/13 05:11:11;;;;;;;2.80;2.60;;;;;;;;;;7314343;19;153923;-17
2022/07/13 05:13:45;;;;;;;4.57;3.03;;;;;;;;;;7312365;19;162834;-18
2022/07/13 05:16:18;;;;;;;3.35;2.50;;;;;;;;;;7312151;19;162868;-17
2022/07/13 05:18:49;;;;;;;;;;;;;;;;;;7313386;19;154507;-18
2022/07/13 05:21:33;;;;;;;3.00;2.80;;;;;;;;;;7313035;19;153394;-17
2022/07/13 05:24:04;;;;;;;2.38;2.17;;;;;;;;;;7309776;19;162364;-17
2022/07/13 05:26:36;;;;;;;2.83;2.63;;;;;;;;;;7312220;19;162908;-17
2022/07/13 05:29:10;;;;;;;6.07;4.63;;;;;;;;;;7312358;19;155047;-17
2022/07/13 05:31:42;;;;;;;7.30;5.78;;;;;;;;;;7312363;19;154553;-17
2022/07/13 05:34:14;;;;;;;6.38;5.70;;;;;;;;;;7311420;19;162519;-17
2022/07/13 05:36:49;;;;;;;7.10;6.38;;;;;;;;;;7311912;19;163120;-16
2022/07/13 05:39:20;;;;;;;8.15;6.47;;;;;;;;;;7311872;19;154468;-17
2022/07/13 05:41:51;;;;;;;7.20;6.50;;;;;;;;;;7310818;19;154336;-16
2022/07/13 05:44:25;;;;;;;6.78;5.82;;;;;;;;;;7309496;19;162290;-15
2022/07/13 05:46:57;;;;;;;8.70;6.80;;;;;;;;;;7311527;19;162856;-17
2022/07/13 05:49:29;;;;;;;7.95;6.90;;;;;;;;;;7312103;19;154533;-17
2022/07/13 05:52:01;;;;;;;11.38;7.25;;;;;;;;;;7311834;19;153832;-17
2022/07/13 05:54:35;;;;;;;13.60;7.60;;;;;;;;;;7309453;19;162762;-17
2022/07/13 05:57:14;;;;;;;11.07;8.18;;;;;;;;;;7311841;19;164745;-17
2022/07/13 05:59:48;;;;;;;13.23;8.45;;;;;;;;;;7313311;19;154417;-17
2022/07/13 06:02:19;;;;;;;14.57;8.38;;;;;;;;;;7313141;19;154111;-17
2022/07/13 06:04:50;;;;;;;12.43;8.00;;;;;;;;;;7310159;19;162671;-17
2022/07/13 06:07:22;;;;;;;11.63;7.40;;;;;;;;;;7312593;19;163059;-17
2022/07/13 06:09:53;;;;;;;11.23;8.20;;;;;;;;;;7312715;19;154381;-17
2022/07/13 06:12:24;;;;;;;12.77;7.88;;;;;;;;;;7312691;19;153983;-17
2022/07/13 06:14:58;;;;;;;12.60;7.95;;;;;;;;;;7312243;19;162758;-16
2022/07/13 06:17:30;;;;;;;10.38;7.15;;;;;;;;;;7311970;19;163616;-17
2022/07/13 06:20:01;;;;;;;12.68;7.55;;;;;;;;;;7312479;19;154548;-17
2022/07/13 06:22:32;;;;;;;7.72;6.93;;;;;;;;;;7312477;19;154502;-17
2022/07/13 06:25:03;;;;;;;9.60;7.50;;;;;;;;;;7309484;19;162512;-16
2022/07/13 06:27:35;;;;;;;9.02;6.45;;;;;;;;;;7312268;19;162874;-17
2022/07/13 06:30:10;;;;;;;7.97;6.50;;;;;;;;;;7312534;19;154563;-16
2022/07/13 06:32:41;;;;;;;10.45;6.85;;;;;;;;;;7311893;19;153922;-18
2022/07/13 06:35:13;;;;;;;9.90;7.50;;;;;;;;;;7311577;19;162771;-16
2022/07/13 06:37:44;;;;;;;9.82;7.22;;;;;;;;;;7310080;19;162835;-19
2022/07/13 06:40:16;;;;;;;10.07;7.10;;;;;;;;;;7310565;19;154438;-17
2022/07/13 06:42:48;;;;;;;9.48;7.03;;;;;;;;;;7311633;19;154338;-17
2022/07/13 06:45:23;;;;;;;8.18;6.65;;;;;;;;;;7307188;19;162761;-24
2022/07/13 06:47:54;;;;;;;9.05;7.45;;;;;;;;;;7309896;19;163057;-15
2022/07/13 06:50:25;;;;;;;8.70;6.97;;;;;;;;;;7310192;19;154792;-16
2022/07/13 06:52:57;;;;;;;8.52;7.07;;;;;;;;;;7311290;19;154041;-16
2022/07/13 06:55:28;;;;;;;11.50;7.43;;;;;;;;;;7310113;19;162229;-15
2022/07/13 06:58:00;;;;;;;11.50;7.05;;;;;;;;;;7310826;19;162812;-16
2022/07/13 07:00:34;;;;;;;13.30;7.70;;;;;;;;;;7311013;19;154400;-17
2022/07/13 07:03:06;;;;;;;10.27;7.50;;;;;;;;;;7310500;19;153974;-16
2022/07/13 07:05:37;;;;;;;7.85;7.10;;;;;;;;;;7307919;19;162277;-17
2022/07/13 07:08:08;;;;;;;10.70;7.60;;;;;;;;;;7310190;19;162836;-17
2022/07/13 07:10:52;;;;;;;7.85;7.10;;;;;;;;;;7317496;19;154787;-17
2022/07/13 07:13:24;;;;;;;7.60;6.90;;;;;;;;;;7317782;19;153942;-17
2022/07/13 07:15:59;;;;;;;9.13;7.50;;;;;;;;;;7317128;19;162787;-17
2022/07/13 07:18:30;;;;;;;10.90;7.28;;;;;;;;;;7316929;19;162903;-17
2022/07/13 07:21:20;;;;;;;7.32;6.53;;;;;;;;;;7317614;19;154416;-18
2022/07/13 07:23:51;;;;;;;10.50;7.78;;;;;;;;;;7316718;19;154376;-17
2022/07/13 07:26:22;;;;;;;8.93;7.32;;;;;;;;;;7316874;19;162628;-16
2022/07/13 07:28:54;;;;;;;10.13;7.07;;;;;;;;;;7316491;19;163259;-16
2022/07/13 07:31:28;;;;;;;7.53;6.40;;;;;;;;;;7317272;19;154979;-17
2022/07/13 07:33:59;;;;;;;7.88;6.68;;;;;;;;;;7316715;19;154247;-17
2022/07/13 07:36:31;;;;;;;7.63;6.63;;;;;;;;;;7316684;19;162881;-16
2022/07/13 07:39:02;;;;;;;8.30;7.40;;;;;;;;;;7316589;19;162863;-17
2022/07/13 07:41:34;;;;;;;8.07;7.22;;;;;;;;;;7314882;19;154985;-17
2022/07/13 07:44:05;;;;;;;12.75;7.25;;;;;;;;;;7316319;19;153988;-16
2022/07/13 07:46:42;;;;;;;9.93;7.30;;;;;;;;;;7315040;19;162848;-17
2022/07/13 07:49:13;;;;;;;9.70;6.82;;;;;;;;;;7316221;19;162952;-16
2022/07/13 07:51:44;;;;;;;7.03;6.32;;;;;;;;;;7316578;19;154471;-16
2022/07/13 07:54:35;;;;;;;8.85;7.35;;;;;;;;;;7316525;19;154059;-17
2022/07/13 07:57:06;;;;;;;9.05;6.82;;;;;;;;;;7314383;19;162726;-17
2022/07/13 07:59:38;;;;;;;8.15;7.35;;;;;;;;;;7314439;19;162849;-16
2022/07/13 08:02:12;;;;;;;8.88;6.70;;;;;;;;;;7316241;19;154899;-17
2022/07/13 08:04:44;;;;;;;8.88;6.60;;;;;;;;;;7314275;19;154064;-17
2022/07/13 08:07:16;;;;;;;7.60;6.30;;;;;;;;;;7315919;19;162324;-17
2022/07/13 08:09:47;;;;;;;8.80;6.65;;;;;;;;;;7314100;19;163196;-17
2022/07/13 08:12:18;;;;;;;7.28;6.57;;;;;;;;;;7315182;19;154818;-17
2022/07/13 08:14:50;;;;;;;6.65;6.05;;;;;;;;;;7315627;19;153981;-15
2022/07/13 08:17:24;;;;;;;7.25;6.55;;;;;;;;;;7315625;19;162220;-17
2022/07/13 08:19:55;;;;;;;7.88;6.20;;;;;;;;;;7315401;19;162940;-16
2022/07/13 08:22:26;;;;;;;6.82;6.03;;;;;;;;;;7315966;19;154764;-17
2022/07/13 08:24:57;;;;;;;7.47;6.10;;;;;;;;;;7314948;19;154089;-17
2022/07/13 08:27:30;;;;;;;7.60;6.85;;;;;;;;;;7315042;19;162211;-17
2022/07/13 08:30:01;;;;;;;7.32;6.07;;;;;;;;;;7314794;19;163460;-17
2022/07/13 08:32:35;;;;;;;7.45;6.75;;;;;;;;;;7313925;19;155087;-17
2022/07/13 08:40:35;;;;;;;7.05;6.40;;;;;;;;;;7313471;19;162890;-17
2022/07/13 08:43:07;;;;;;;8.13;6.97;;;;;;;;;;7315082;19;154771;-17
2022/07/13 08:45:38;;;;;;;7.05;6.35;;;;;;;;;;7313479;19;153932;-16
2022/07/13 08:48:17;;;;;;;6.40;5.80;;;;;;;;;;7314459;19;162238;-16
2022/07/13 08:50:50;;;;;;;6.20;5.60;;;;;;;;;;7314662;19;163244;-21
2022/07/13 08:53:22;;;;;;;;;;;;;;;;;;7315653;19;154787;-16
2022/07/13 08:55:54;;;;;;;6.70;6.00;;;;;;;;;;7315090;19;154128;-16
2022/07/13 08:58:25;;;;;;;6.57;6.00;;;;;;;;;;7314338;19;163356;-17
2022/07/13 09:00:56;;;;;;;6.63;6.03;;;;;;;;;;7314386;19;162752;-17
2022/07/13 09:03:38;;;;;;;6.45;5.95;;;;;;;;;;7313183;19;154191;-16
2022/07/13 09:06:09;;;;;;;6.72;6.10;;;;;;;;;;7313069;19;154287;-17
2022/07/13 09:08:45;;;;;;;7.95;6.18;;;;;;;;;;7314022;19;162184;-18
2022/07/13 09:11:16;;;;;;;7.60;5.40;;;;;;;;;;7314133;19;163253;-17
2022/07/13 09:13:48;;;;;;;6.50;5.90;;;;;;;;;;7314228;19;154577;-16
2022/07/13 09:16:20;;;;;;;7.68;6.53;;;;;;;;;;7312799;19;154444;-17
2022/07/13 09:18:56;;;;;;;6.82;6.22;;;;;;;;;;7313621;19;162249;-17
2022/07/13 09:21:32;;;;;;;6.40;5.80;;;;;;;;;;7313626;19;162906;-16
2022/07/13 09:24:04;;;;;;;6.57;5.95;;;;;;;;;;7314281;19;154756;-17
2022/07/13 09:26:41;;;;;;;7.65;5.80;;;;;;;;;;7310785;19;154419;-16
2022/07/13 09:29:14;;;;;;;6.72;6.03;;;;;;;;;;7313766;19;162376;-17
2022/07/13 09:31:55;;;;;;;6.53;5.87;;;;;;;;;;7311949;19;163272;-16
2022/07/13 09:34:50;;;;;;;6.68;6.07;;;;;;;;;;7313766;19;155003;-17
2022/07/13 09:37:24;;;;;;;6.85;6.18;;;;;;;;;;7313714;19;154071;-16
2022/07/13 09:39:59;;;;;;;6.38;5.78;;;;;;;;;;7312966;19;162206;-16
2022/07/13 09:42:35;;;;;;;6.60;6.00;;;;;;;;;;7312990;19;162988;-17
2022/07/13 09:47:55;;;;;;;6.50;5.78;;;;;;;;;;7313428;19;154497;-17
2022/07/13 09:50:40;;;;;;;6.45;5.85;;;;;;;;;;7311301;19;162324;-16
2022/07/13 09:53:27;;;;;;;6.50;5.90;;;;;;;;;;7312633;19;162760;-17
2022/07/13 09:56:02;;;;;;;5.85;5.32;;;;;;;;;;7313144;19;154488;-17
2022/07/13 09:58:35;;;;;;;6.38;5.78;;;;;;;;;;7312943;19;154093;-17
2022/07/13 10:01:06;;;;;;;5.72;5.22;;;;;;;;;;7312307;19;162633;-17
2022/07/13 10:03:39;;;;;;;6.45;5.65;;;;;;;;;;7310960;19;162979;-17
2022/07/13 10:06:20;;;;;;;6.60;6.00;;;;;;;;;;7311755;19;154917;-17
2022/07/13 10:08:53;;;;;;;6.70;6.07;;;;;;;;;;7311201;19;154175;-17
2022/07/13 10:11:26;;;;;;;7.43;5.90;;;;;;;;;;7312260;19;162272;-17
2022/07/13 10:13:58;;;;;;;5.78;5.25;;;;;;;;;;7310766;19;163132;-17
2022/07/13 10:16:31;;;;;;;6.30;5.80;;;;;;;;;;7311406;19;154784;-17
2022/07/13 10:19:06;;;;;;;6.93;5.88;;;;;;;;;;7312483;19;153915;-17
2022/07/13 10:21:56;;;;;;;6.93;6.22;;;;;;;;;;7311966;19;162630;-17
2022/07/13 10:24:27;;;;;;;6.15;5.63;;;;;;;;;;7310633;19;163395;-17
2022/07/13 10:27:25;;;;;;;5.50;5.05;;;;;;;;;;7310835;19;155024;-17
2022/07/13 10:29:57;;;;;;;6.22;5.72;;;;;;;;;;7312045;19;154408;-19
2022/07/13 10:32:30;;;;;;;5.93;5.43;;;;;;;;;;7311843;19;162888;-17
2022/07/13 10:35:02;;;;;;;6.10;5.60;;;;;;;;;;7311928;19;162835;-16
2022/07/13 10:38:09;;;;;;;6.55;5.45;;;;;;;;;;7312008;19;154903;-17
2022/07/13 10:40:43;;;;;;;6.13;5.53;;;;;;;;;;7308258;19;154083;-18
2022/07/13 10:43:18;;;;;;;6.53;5.93;;;;;;;;;;7307942;19;162305;-17
2022/07/13 10:45:52;;;;;;;6.38;5.78;;;;;;;;;;7310812;19;163195;-28
2022/07/13 10:48:48;;;;;;;5.78;5.28;;;;;;;;;;7310139;19;154393;-17
2022/07/13 10:51:23;;;;;;;6.10;5.50;;;;;;;;;;7311930;19;153972;-17
2022/07/13 10:54:11;;;;;;;7.25;6.10;;;;;;;;;;7310690;19;162730;-16
2022/07/13 10:57:17;;;;;;;6.40;5.82;;;;;;;;;;7309253;19;162799;-18
2022/07/13 10:59:49;;;;;;;6.03;5.45;;;;;;;;;;7310222;19;154614;-17
2022/07/13 11:02:47;;;;;;;7.63;5.90;;;;;;;;;;7310941;19;154026;-17
2022/07/13 11:05:20;;;;;;;6.40;5.80;;;;;;;;;;7310456;19;162433;-17
2022/07/13 11:07:53;;;;;;;7.55;5.95;;;;;;;;;;7308040;19;162873;-17
2022/07/13 11:10:25;;;;;;;;;;;;;;;;;;7311598;19;154549;-17
2022/07/13 11:13:09;;;;;;;7.22;5.90;;;;;;;;;;7311073;19;153946;-17
2022/07/13 11:15:52;;;;;;;7.57;6.00;;;;;;;;;;7310418;19;162566;-16
2022/07/13 11:18:28;;;;;;;6.35;5.75;;;;;;;;;;7309216;19;163013;-16
2022/07/13 11:21:01;;;;;;;7.00;6.00;;;;;;;;;;7310799;19;154401;-17
2022/07/13 11:26:36;;;;;;;6.88;6.03;;;;;;;;;;7310047;19;162247;-17
2022/07/13 11:29:20;;;;;;;6.78;5.95;;;;;;;;;;7310071;19;163230;-17
2022/07/13 11:31:57;;;;;;;6.63;6.00;;;;;;;;;;7309097;19;154803;-17
2022/07/13 11:34:30;;;;;;;7.50;5.95;;;;;;;;;;7310479;19;153965;-17
2022/07/13 11:37:01;;;;;;;;;;;;;;;;;;7310759;19;162803;-17
2022/07/13 11:39:34;;;;;;;6.20;5.60;;;;;;;;;;7310502;19;163007;-16
2022/07/13 11:42:07;;;;;;;7.20;5.80;;;;;;;;;;7307548;19;155050;-17
2022/07/13 11:44:41;;;;;;;5.78;5.18;;;;;;;;;;7310106;19;153958;-18
2022/07/13 11:47:13;;;;;;;5.95;5.30;;;;;;;;;;7308703;19;162749;-17
2022/07/13 11:49:48;;;;;;;6.57;5.90;;;;;;;;;;7309802;19;163486;-16
2022/07/13 11:52:24;;;;;;;7.20;6.43;;;;;;;;;;7310316;19;154552;-17
2022/07/13 11:55:02;;;;;;;8.05;6.15;;;;;;;;;;7311246;19;154102;-16
2022/07/13 11:57:35;;;;;;;6.38;5.78;;;;;;;;;;7316365;19;162809;-17
2022/07/13 12:00:11;;;;;;;6.00;5.50;;;;;;;;;;7316453;19;162858;-17
2022/07/13 12:02:43;;;;;;;6.32;5.80;;;;;;;;;;7316877;19;154497;-17
2022/07/13 12:05:14;;;;;;;5.80;5.25;;;;;;;;;;7316638;19;154194;-17
2022/07/13 12:07:47;;;;;;;7.18;5.78;;;;;;;;;;7315363;19;162250;-18
2022/07/13 12:10:23;;;;;;;6.05;5.53;;;;;;;;;;7316125;19;162815;-17
2022/07/13 12:12:58;;;;;;;6.65;5.90;;;;;;;;;;7316396;19;154426;-18
2022/07/13 12:15:31;;;;;;;6.05;5.07;;;;;;;;;;7316342;19;154604;-16
2022/07/13 12:18:09;;;;;;;5.90;5.05;;;;;;;;;;7315608;19;162384;-17
2022/07/13 12:20:40;;;;;;;8.40;5.85;;;;;;;;;;7313971;19;163339;-17
2022/07/13 12:23:12;;;;;;;5.88;5.38;;;;;;;;;;7316099;19;154805;-17
2022/07/13 12:25:43;;;;;;;6.10;5.50;;;;;;;;;;7315792;19;154041;-16
2022/07/13 12:28:15;;;;;;;6.60;6.00;;;;;;;;;;7314042;19;162301;-17
2022/07/13 12:31:03;;;;;;;6.13;5.50;;;;;;;;;;7315337;19;162871;-17
2022/07/13 12:33:46;;;;;;;6.97;5.78;;;;;;;;;;7315638;19;154455;-17
2022/07/13 12:36:19;;;;;;;6.13;5.63;;;;;;;;;;7315697;19;154026;-17
2022/07/13 12:39:02;;;;;;;6.25;5.65;;;;;;;;;;7315273;19;162787;-16
2022/07/13 12:41:40;;;;;;;7.03;5.95;;;;;;;;;;7313129;19;162953;-17
2022/07/13 12:44:13;;;;;;;6.22;5.63;;;;;;;;;;7315684;19;154945;-16
2022/07/13 12:46:54;;;;;;;;;;;;;;;;;;7316306;19;154477;-16
2022/07/13 12:49:30;;;;;;;13.00;5.70;;;;;;;;;;7311469;19;163226;-16
2022/07/13 12:52:06;;;;;;;6.45;5.88;;;;;;;;;;7314793;19;162767;-17
2022/07/13 12:54:46;;;;;;;6.13;5.63;;;;;;;;;;7315318;19;154440;-16
2022/07/13 12:57:18;;;;;;;6.40;5.68;;;;;;;;;;7315452;19;153548;-16
2022/07/13 13:00:01;;;;;;;6.90;6.20;;;;;;;;;;7315307;19;162210;-17
2022/07/13 13:02:35;;;;;;;12.93;6.10;;;;;;;;;;7314729;19;163203;-17
2022/07/13 13:05:08;;;;;;;6.63;5.80;;;;;;;;;;7314770;19;154740;-17
2022/07/13 13:07:40;;;;;;;6.78;5.93;;;;;;;;;;7311087;19;154357;-18
2022/07/13 13:10:13;;;;;;;6.53;5.93;;;;;;;;;;7313581;19;162606;-18
2022/07/13 13:12:44;;;;;;;7.32;6.63;;;;;;;;;;7314221;19;163019;-17
2022/07/13 13:15:15;;;;;;;6.57;5.75;;;;;;;;;;7314695;19;154786;-18
2022/07/13 13:17:49;;;;;;;8.73;6.05;;;;;;;;;;7314684;19;153900;-18
2022/07/13 13:20:21;;;;;;;7.38;6.53;;;;;;;;;;7314365;19;162199;-18
2022/07/13 13:22:52;;;;;;;6.75;6.15;;;;;;;;;;7314217;19;162516;-18
2022/07/13 13:25:23;;;;;;;6.32;5.72;;;;;;;;;;7314473;19;154482;-17
2022/07/13 13:27:54;;;;;;;9.98;6.50;;;;;;;;;;7314214;19;154782;-17
2022/07/13 13:30:46;;;;;;;5.88;5.38;;;;;;;;;;7314013;19;162220;-17
2022/07/13 13:33:20;;;;;;;6.78;6.15;;;;;;;;;;7313942;19;163448;-17
2022/07/13 13:35:52;;;;;;;6.00;5.50;;;;;;;;;;7314680;19;155014;-18
2022/07/13 13:38:23;;;;;;;6.70;6.03;;;;;;;;;;7312571;19;154166;-18
2022/07/13 13:40:54;;;;;;;6.90;5.90;;;;;;;;;;7312853;19;162285;-18
2022/07/13 13:43:25;;;;;;;7.97;6.90;;;;;;;;;;7313895;19;162934;-17
2022/07/13 13:45:57;;;;;;;13.25;8.48;;;;;;;;;;7314012;19;154475;-20
2022/07/13 13:48:30;;;;;;;9.57;8.50;;;;;;;;;;7313233;19;154536;-16
2022/07/13 13:51:02;;;;;;;8.93;8.00;;;;;;;;;;7313450;19;162238;-15
2022/07/13 13:53:33;;;;;;;10.88;7.95;;;;;;;;;;7313124;19;163451;-17
2022/07/13 13:56:04;;;;;;;9.88;8.25;;;;;;;;;;7313345;19;154740;-16
2022/07/13 13:58:38;;;;;;;9.43;8.27;;;;;;;;;;7312765;19;154628;-16
2022/07/13 14:01:10;;;;;;;9.40;8.00;;;;;;;;;;7312291;19;162210;-16
2022/07/13 14:03:44;;;;;;;11.18;7.95;;;;;;;;;;7312445;19;163361;-16
2022/07/13 14:06:15;;;;;;;11.32;7.88;;;;;;;;;;7312918;19;154866;-17
2022/07/13 14:08:47;;;;;;;9.48;8.15;;;;;;;;;;7312031;19;154110;-17
2022/07/13 14:11:18;;;;;;;14.10;8.25;;;;;;;;;;7311910;19;162854;-17
2022/07/13 14:13:58;;;;;;;9.45;7.38;;;;;;;;;;7311848;19;163454;-17
2022/07/13 14:16:29;;;;;;;8.82;7.90;;;;;;;;;;7313283;19;154461;-16
2022/07/13 14:19:03;;;;;;;9.02;8.13;;;;;;;;;;7312578;19;154357;-16
2022/07/13 14:21:35;;;;;;;10.23;8.23;;;;;;;;;;7310341;19;162197;-16
2022/07/13 14:24:06;;;;;;;8.88;7.07;;;;;;;;;;7311024;19;162836;-16
2022/07/13 14:26:54;;;;;;;11.80;7.85;;;;;;;;;;7312589;19;154826;-16
2022/07/13 14:29:31;;;;;;;7.90;7.15;;;;;;;;;;7311246;19;154101;-17
2022/07/13 14:32:02;;;;;;;10.15;7.88;;;;;;;;;;7312229;19;162224;-16
2022/07/13 14:34:56;;;;;;;9.38;7.25;;;;;;;;;;7311925;19;162879;-16
2022/07/13 14:37:29;;;;;;;9.80;7.57;;;;;;;;;;7312383;19;154497;-16
2022/07/13 14:40:01;;;;;;;8.35;7.40;;;;;;;;;;7311963;19;154415;-17
2022/07/13 14:42:32;;;;;;;9.48;8.43;;;;;;;;;;7311808;19;162279;-17
2022/07/13 14:45:04;;;;;;;8.25;7.43;;;;;;;;;;7311870;19;163355;-17
2022/07/13 14:47:35;;;;;;;8.35;7.65;;;;;;;;;;7312238;19;154012;-16
2022/07/13 14:50:29;;;;;;;8.55;7.03;;;;;;;;;;7309064;19;154004;-16
2022/07/13 14:53:16;;;;;;;9.38;6.75;;;;;;;;;;7311249;19;162262;-16
2022/07/13 14:55:47;;;;;;;7.93;7.20;;;;;;;;;;7310552;19;163010;-16
2022/07/13 14:58:18;;;;;;;7.50;6.72;;;;;;;;;;7311337;19;155307;-16
2022/07/13 15:00:50;;;;;;;9.85;6.82;;;;;;;;;;7311380;19;154143;-16
2022/07/13 15:03:21;;;;;;;7.60;6.90;;;;;;;;;;7310984;19;162740;-17
2022/07/13 15:05:55;;;;;;;9.05;7.00;;;;;;;;;;7310648;19;162806;-17
2022/07/13 15:08:26;;;;;;;8.75;7.28;;;;;;;;;;7311201;19;154461;-17
2022/07/13 15:10:58;;;;;;;7.72;6.78;;;;;;;;;;7307983;19;154001;-16
2022/07/13 15:13:29;;;;;;;7.78;7.05;;;;;;;;;;7310020;19;162278;-17
2022/07/13 15:16:00;;;;;;;7.68;6.90;;;;;;;;;;7310833;19;163039;-16
2022/07/13 15:18:33;;;;;;;7.45;6.70;;;;;;;;;;7311085;19;154378;-16
2022/07/13 15:21:07;;;;;;;7.85;7.15;;;;;;;;;;7309784;19;154380;-17